createdAt,value
2016-12-12T00:00:05.514Z,0
2016-12-12T00:00:14.207Z,0
2016-12-12T00:00:22.931Z,0
2016-12-12T00:00:31.636Z,0
2016-12-12T00:00:40.347Z,0
2016-12-12T00:00:49.102Z,0.39
2016-12-12T00:00:57.851Z,0
2016-12-12T00:01:06.581Z,0
2016-12-12T00:01:15.282Z,0
2016-12-12T00:01:24.006Z,0
2016-12-12T00:01:32.714Z,0
2016-12-12T00:01:41.428Z,0
2016-12-12T00:01:50.169Z,0
2016-12-12T00:01:58.914Z,0
2016-12-12T00:02:07.609Z,0
2016-12-12T00:02:16.327Z,0
2016-12-12T00:02:25.061Z,0
2016-12-12T00:02:33.785Z,0
2016-12-12T00:02:42.500Z,0
2016-12-12T00:02:51.236Z,0
2016-12-12T00:02:59.976Z,0
2016-12-12T00:03:08.679Z,0.01
2016-12-12T00:03:17.408Z,0
2016-12-12T00:03:26.137Z,0
2016-12-12T00:03:34.896Z,0
2016-12-12T00:03:43.609Z,0
2016-12-12T00:03:52.365Z,0
2016-12-12T00:04:01.108Z,0
2016-12-12T00:04:09.832Z,0
2016-12-12T00:04:18.571Z,0
2016-12-12T00:04:27.253Z,3.12
2016-12-12T00:04:35.939Z,0
2016-12-12T00:04:44.656Z,0.39
2016-12-12T00:04:53.390Z,0
2016-12-12T00:05:02.111Z,0
2016-12-12T00:05:10.815Z,0
2016-12-12T00:05:19.514Z,0
2016-12-12T00:05:28.235Z,0
2016-12-12T00:05:36.978Z,0
2016-12-12T00:05:45.638Z,100
2016-12-12T00:05:54.346Z,0
2016-12-12T00:06:03.324Z,0
2016-12-12T00:06:12.076Z,0
2016-12-12T00:06:20.785Z,0
2016-12-12T00:06:29.780Z,0
2016-12-12T00:06:38.459Z,0
2016-12-12T00:06:47.187Z,0
2016-12-12T00:06:56.211Z,0
2016-12-12T00:07:05.182Z,0
2016-12-12T00:07:13.905Z,0
2016-12-12T00:07:22.600Z,0
2016-12-12T00:07:31.353Z,0
2016-12-12T00:07:40.139Z,0
2016-12-12T00:07:48.856Z,0
2016-12-12T00:07:57.572Z,0
2016-12-12T00:08:06.302Z,0
2016-12-12T00:08:15.028Z,0
2016-12-12T00:08:23.731Z,0.78
2016-12-12T00:08:32.436Z,0
2016-12-12T00:08:41.157Z,0
2016-12-12T00:08:49.853Z,0
2016-12-12T00:08:58.576Z,0.78
2016-12-12T00:09:07.314Z,25
2016-12-12T00:09:16.064Z,0
2016-12-12T00:09:24.777Z,3.12
2016-12-12T00:09:33.487Z,0
2016-12-12T00:09:42.250Z,12.5
2016-12-12T00:09:51.228Z,0
2016-12-12T00:09:59.960Z,0
2016-12-12T00:10:08.719Z,0
2016-12-12T00:10:17.473Z,0
2016-12-12T00:10:26.190Z,0
2016-12-12T00:10:34.886Z,0
2016-12-12T00:10:43.590Z,0.39
2016-12-12T00:10:52.297Z,0.39
2016-12-12T00:11:01.025Z,0
2016-12-12T00:11:09.762Z,0
2016-12-12T00:11:18.464Z,0
2016-12-12T00:11:27.208Z,0
2016-12-12T00:11:35.957Z,99.99
2016-12-12T00:11:44.659Z,99.99
2016-12-12T00:11:53.383Z,99.99
2016-12-12T00:12:02.087Z,99.99
2016-12-12T00:12:10.800Z,99.99
2016-12-12T00:12:19.524Z,99.99
2016-12-12T00:12:28.249Z,99.99
2016-12-12T00:12:36.925Z,0
2016-12-12T00:12:45.663Z,0
2016-12-12T00:12:54.405Z,0
2016-12-12T00:13:03.118Z,0
2016-12-12T00:13:11.825Z,0
2016-12-12T00:13:20.487Z,0
2016-12-12T00:13:29.181Z,0
2016-12-12T00:13:37.897Z,0.39
2016-12-12T00:13:46.899Z,0
2016-12-12T00:13:55.597Z,0.39
2016-12-12T00:14:04.353Z,0
2016-12-12T00:14:13.097Z,0
2016-12-12T00:14:21.780Z,0.1
2016-12-12T00:14:30.505Z,0.39
2016-12-12T00:14:39.199Z,0
2016-12-12T00:14:47.863Z,0.39
2016-12-12T00:14:56.584Z,0
2016-12-12T00:15:05.295Z,0
2016-12-12T00:15:14.029Z,0
2016-12-12T00:15:22.760Z,0
2016-12-12T00:15:31.473Z,0
2016-12-12T00:15:40.174Z,0
2016-12-12T00:15:48.919Z,0
2016-12-12T00:15:57.956Z,0
2016-12-12T00:16:06.640Z,0.78
2016-12-12T00:16:15.309Z,0
2016-12-12T00:16:24.036Z,0
2016-12-12T00:16:32.783Z,0
2016-12-12T00:16:41.517Z,0
2016-12-12T00:16:50.246Z,0
2016-12-12T00:16:58.940Z,0
2016-12-12T00:17:07.669Z,0
2016-12-12T00:17:16.407Z,0
2016-12-12T00:17:25.156Z,0
2016-12-12T00:17:33.872Z,0.78
2016-12-12T00:17:42.587Z,0.39
2016-12-12T00:17:51.301Z,0
2016-12-12T00:17:59.972Z,0
2016-12-12T00:18:08.677Z,0
2016-12-12T00:18:17.380Z,0
2016-12-12T00:18:26.085Z,0
2016-12-12T00:18:34.800Z,0
2016-12-12T00:18:43.502Z,0
2016-12-12T00:18:52.195Z,0
2016-12-12T00:19:00.896Z,0
2016-12-12T00:19:09.563Z,0
2016-12-12T00:19:18.273Z,0
2016-12-12T00:19:26.991Z,0
2016-12-12T00:19:35.715Z,0
2016-12-12T00:19:44.421Z,0
2016-12-12T00:19:53.100Z,0
2016-12-12T00:20:01.827Z,0
2016-12-12T00:20:10.571Z,0
2016-12-12T00:20:19.308Z,0
2016-12-12T00:20:28.040Z,100
2016-12-12T00:20:36.770Z,0
2016-12-12T00:20:45.512Z,0
2016-12-12T00:20:54.240Z,0
2016-12-12T00:21:02.906Z,0
2016-12-12T00:21:11.607Z,0
2016-12-12T00:21:20.297Z,0
2016-12-12T00:21:29.015Z,0
2016-12-12T00:21:37.727Z,0
2016-12-12T00:21:46.473Z,0
2016-12-12T00:21:55.192Z,0
2016-12-12T00:22:03.926Z,0
2016-12-12T00:22:12.659Z,0.1
2016-12-12T00:22:21.383Z,0
2016-12-12T00:22:30.100Z,0
2016-12-12T00:22:38.784Z,0
2016-12-12T00:22:47.487Z,0.01
2016-12-12T00:22:56.196Z,0
2016-12-12T00:23:04.934Z,0
2016-12-12T00:23:13.592Z,0
2016-12-12T00:23:22.329Z,0
2016-12-12T00:23:31.050Z,0
2016-12-12T00:23:39.785Z,0
2016-12-12T00:23:48.472Z,0
2016-12-12T00:23:57.244Z,0
2016-12-12T00:24:06.264Z,0.39
2016-12-12T00:24:14.984Z,0
2016-12-12T00:24:23.668Z,0
2016-12-12T00:24:32.381Z,0
2016-12-12T00:24:41.105Z,0.01
2016-12-12T00:24:49.787Z,0
2016-12-12T00:24:58.505Z,0
2016-12-12T00:25:07.231Z,0
2016-12-12T00:25:15.936Z,0
2016-12-12T00:25:24.643Z,99.99
2016-12-12T00:25:33.369Z,99.99
2016-12-12T00:25:42.098Z,99.99
2016-12-12T00:25:50.817Z,99.99
2016-12-12T00:25:59.511Z,99.99
2016-12-12T00:26:08.206Z,99.99
2016-12-12T00:26:16.965Z,99.99
2016-12-12T00:26:25.669Z,99.99
2016-12-12T00:26:34.392Z,99.99
2016-12-12T00:26:43.117Z,99.99
2016-12-12T00:26:51.840Z,0
2016-12-12T00:27:00.527Z,0
2016-12-12T00:27:09.259Z,0
2016-12-12T00:27:17.962Z,0
2016-12-12T00:27:26.667Z,0
2016-12-12T00:27:35.382Z,0
2016-12-12T00:27:44.128Z,0
2016-12-12T00:27:52.848Z,0
2016-12-12T00:28:01.604Z,0
2016-12-12T00:28:10.321Z,0
2016-12-12T00:28:19.004Z,0
2016-12-12T00:28:27.707Z,0
2016-12-12T00:28:36.410Z,0
2016-12-12T00:28:45.123Z,0
2016-12-12T00:28:53.850Z,0.19
2016-12-12T00:29:02.536Z,0
2016-12-12T00:29:11.558Z,0.1
2016-12-12T00:29:20.287Z,0.39
2016-12-12T00:29:29.009Z,0
2016-12-12T00:29:37.720Z,0
2016-12-12T00:29:46.450Z,0
2016-12-12T00:29:55.119Z,0
2016-12-12T00:30:03.846Z,0
2016-12-12T00:30:12.580Z,0.39
2016-12-12T00:30:21.318Z,0
2016-12-12T00:30:30.064Z,0
2016-12-12T00:30:38.772Z,0
2016-12-12T00:30:47.485Z,0
2016-12-12T00:30:56.229Z,0
2016-12-12T00:31:04.929Z,0.05
2016-12-12T00:31:13.638Z,0.05
2016-12-12T00:31:22.384Z,0
2016-12-12T00:31:31.091Z,0
2016-12-12T00:31:39.833Z,0
2016-12-12T00:31:48.558Z,0.05
2016-12-12T00:31:57.269Z,0
2016-12-12T00:32:06.018Z,0
2016-12-12T00:32:14.727Z,0.05
2016-12-12T00:32:23.473Z,0
2016-12-12T00:32:32.183Z,0
2016-12-12T00:32:40.900Z,0
2016-12-12T00:32:49.613Z,0
2016-12-12T00:32:58.376Z,6.25
2016-12-12T00:33:07.101Z,0.39
2016-12-12T00:33:15.833Z,0
2016-12-12T00:33:24.537Z,0
2016-12-12T00:33:33.263Z,0
2016-12-12T00:33:41.993Z,0.39
2016-12-12T00:33:51.291Z,0
2016-12-12T00:34:00.564Z,0
2016-12-12T00:34:09.289Z,0
2016-12-12T00:34:18.044Z,0.02
2016-12-12T00:34:26.771Z,0
2016-12-12T00:34:35.487Z,0
2016-12-12T00:34:44.195Z,0.39
2016-12-12T00:34:52.904Z,0
2016-12-12T00:35:01.628Z,0
2016-12-12T00:35:10.372Z,0
2016-12-12T00:35:19.055Z,0
2016-12-12T00:35:28.072Z,0
2016-12-12T00:35:36.785Z,0
2016-12-12T00:35:45.791Z,0.05
2016-12-12T00:35:54.496Z,0
2016-12-12T00:36:03.209Z,0
2016-12-12T00:36:11.954Z,0
2016-12-12T00:36:20.723Z,0
2016-12-12T00:36:29.444Z,0
2016-12-12T00:36:38.174Z,6.25
2016-12-12T00:36:47.207Z,0
2016-12-12T00:36:56.170Z,0
2016-12-12T00:37:05.451Z,0
2016-12-12T00:37:14.441Z,0
2016-12-12T00:37:23.142Z,99.99
2016-12-12T00:37:31.842Z,99.99
2016-12-12T00:37:40.565Z,99.99
2016-12-12T00:37:49.233Z,99.99
2016-12-12T00:37:57.937Z,99.99
2016-12-12T00:38:06.650Z,99.99
2016-12-12T00:38:15.706Z,99.99
2016-12-12T00:38:24.718Z,99.99
2016-12-12T00:38:33.463Z,19.16
2016-12-12T00:38:42.146Z,99.99
2016-12-12T00:38:50.859Z,0
2016-12-12T00:38:59.599Z,19.43
2016-12-12T00:39:08.299Z,0
2016-12-12T00:39:17.041Z,0
2016-12-12T00:39:26.057Z,0
2016-12-12T00:39:35.627Z,0
2016-12-12T00:39:44.644Z,0
2016-12-12T00:39:53.372Z,50
2016-12-12T00:40:02.099Z,0
2016-12-12T00:40:10.840Z,0
2016-12-12T00:40:19.527Z,0
2016-12-12T00:40:28.245Z,0
2016-12-12T00:40:36.929Z,0
2016-12-12T00:40:45.631Z,0
2016-12-12T00:40:54.629Z,0
2016-12-12T00:41:03.667Z,25
2016-12-12T00:41:12.363Z,0
2016-12-12T00:41:21.045Z,0.1
2016-12-12T00:41:29.746Z,0
2016-12-12T00:41:38.419Z,0
2016-12-12T00:41:47.143Z,0
2016-12-12T00:41:55.837Z,0
2016-12-12T00:42:04.553Z,0
2016-12-12T00:42:13.283Z,0
2016-12-12T00:42:22.547Z,0
2016-12-12T00:42:31.273Z,0
2016-12-12T00:42:39.996Z,0
2016-12-12T00:42:48.720Z,0
2016-12-12T00:42:57.424Z,0
2016-12-12T00:43:06.165Z,0
2016-12-12T00:43:14.868Z,0
2016-12-12T00:43:23.577Z,50
2016-12-12T00:43:32.297Z,0
2016-12-12T00:43:41.565Z,0
2016-12-12T00:43:50.298Z,0
2016-12-12T00:43:58.981Z,0.39
2016-12-12T00:44:07.714Z,0
2016-12-12T00:44:16.437Z,0.1
2016-12-12T00:44:25.168Z,0
2016-12-12T00:44:33.931Z,0
2016-12-12T00:44:42.691Z,0
2016-12-12T00:44:51.694Z,0
2016-12-12T00:45:00.980Z,0
2016-12-12T00:45:09.697Z,0
2016-12-12T00:45:18.380Z,0
2016-12-12T00:45:27.110Z,0
2016-12-12T00:45:35.838Z,0
2016-12-12T00:45:44.571Z,0
2016-12-12T00:45:53.317Z,0.39
2016-12-12T00:46:01.994Z,0
2016-12-12T00:46:10.989Z,0
2016-12-12T00:46:20.025Z,0
2016-12-12T00:46:28.770Z,0.1
2016-12-12T00:46:37.459Z,0
2016-12-12T00:46:46.155Z,0
2016-12-12T00:46:54.816Z,0.01
2016-12-12T00:47:03.814Z,0
2016-12-12T00:47:12.600Z,0
2016-12-12T00:47:21.272Z,0
2016-12-12T00:47:30.550Z,0
2016-12-12T00:47:39.242Z,0
2016-12-12T00:47:47.923Z,0
2016-12-12T00:47:56.654Z,0
2016-12-12T00:48:05.351Z,0
2016-12-12T00:48:14.047Z,0
2016-12-12T00:48:22.708Z,12.5
2016-12-12T00:48:31.724Z,0
2016-12-12T00:48:40.451Z,0
2016-12-12T00:48:49.489Z,0
2016-12-12T00:48:58.480Z,0
2016-12-12T00:49:07.246Z,0
2016-12-12T00:49:15.946Z,0
2016-12-12T00:49:24.658Z,0
2016-12-12T00:49:33.399Z,0.39
2016-12-12T00:49:42.083Z,0.39
2016-12-12T00:49:50.790Z,0
2016-12-12T00:49:59.510Z,0.39
2016-12-12T00:50:08.495Z,0
2016-12-12T00:50:17.486Z,0
2016-12-12T00:50:26.175Z,0.39
2016-12-12T00:50:34.923Z,12.5
2016-12-12T00:50:43.663Z,50
2016-12-12T00:50:52.388Z,0.05
2016-12-12T00:51:01.110Z,0.39
2016-12-12T00:51:09.815Z,0.01
2016-12-12T00:51:18.507Z,0.39
2016-12-12T00:51:27.265Z,0
2016-12-12T00:51:36.299Z,0
2016-12-12T00:51:45.331Z,0
2016-12-12T00:51:54.042Z,0.39
2016-12-12T00:52:02.767Z,0
2016-12-12T00:52:11.490Z,0
2016-12-12T00:52:20.218Z,0
2016-12-12T00:52:28.992Z,0.05
2016-12-12T00:52:37.677Z,0
2016-12-12T00:52:46.984Z,0
2016-12-12T00:52:55.965Z,0
2016-12-12T00:53:04.664Z,0
2016-12-12T00:53:13.368Z,0
2016-12-12T00:53:22.053Z,0
2016-12-12T00:53:30.757Z,0
2016-12-12T00:53:39.472Z,0
2016-12-12T00:53:48.211Z,0
2016-12-12T00:53:57.203Z,0.19
2016-12-12T00:54:06.180Z,0
2016-12-12T00:54:14.899Z,0
2016-12-12T00:54:23.615Z,0.1
2016-12-12T00:54:32.369Z,0
2016-12-12T00:54:41.108Z,0.39
2016-12-12T00:54:49.814Z,0.1
2016-12-12T00:54:58.505Z,0
2016-12-12T00:55:07.250Z,0
2016-12-12T00:55:15.960Z,0
2016-12-12T00:55:24.653Z,0
2016-12-12T00:55:33.387Z,0
2016-12-12T00:55:42.092Z,0
2016-12-12T00:55:50.767Z,0
2016-12-12T00:55:59.461Z,0.19
2016-12-12T00:56:08.158Z,0
2016-12-12T00:56:16.851Z,0.39
2016-12-12T00:56:25.555Z,0.39
2016-12-12T00:56:34.279Z,0
2016-12-12T00:56:42.969Z,0
2016-12-12T00:56:51.722Z,0
2016-12-12T00:57:00.439Z,0
2016-12-12T00:57:09.103Z,0
2016-12-12T00:57:17.829Z,0
2016-12-12T00:57:26.578Z,1.56
2016-12-12T00:57:35.327Z,0
2016-12-12T00:57:44.071Z,0
2016-12-12T00:57:52.779Z,0
2016-12-12T00:58:01.463Z,0
2016-12-12T00:58:10.170Z,0
2016-12-12T00:58:18.927Z,0
2016-12-12T00:58:27.696Z,0.39
2016-12-12T00:58:36.378Z,0
2016-12-12T00:58:45.109Z,0
2016-12-12T00:58:53.857Z,0
2016-12-12T00:59:02.554Z,0
2016-12-12T00:59:11.239Z,0
2016-12-12T00:59:19.990Z,0
2016-12-12T00:59:28.733Z,0
2016-12-12T00:59:37.474Z,0.01
2016-12-12T00:59:46.213Z,0.1
2016-12-12T00:59:54.960Z,100
2016-12-12T01:00:03.672Z,0
2016-12-12T01:00:12.370Z,6.25
2016-12-12T01:00:21.100Z,100
2016-12-12T01:00:29.809Z,0
2016-12-12T01:00:38.511Z,0.05
2016-12-12T01:00:47.249Z,0
2016-12-12T01:00:55.954Z,0
2016-12-12T01:01:04.684Z,0
2016-12-12T01:01:13.367Z,0.39
2016-12-12T01:01:22.048Z,0
2016-12-12T01:01:30.800Z,0
2016-12-12T01:01:39.505Z,0
2016-12-12T01:01:48.282Z,0
2016-12-12T01:01:57.021Z,0
2016-12-12T01:02:05.714Z,0
2016-12-12T01:02:14.432Z,0
2016-12-12T01:02:23.143Z,0
2016-12-12T01:02:31.879Z,0
2016-12-12T01:02:40.568Z,0
2016-12-12T01:02:49.293Z,0
2016-12-12T01:02:58.016Z,1.56
2016-12-12T01:03:06.701Z,0.1
2016-12-12T01:03:15.426Z,0
2016-12-12T01:03:24.185Z,0
2016-12-12T01:03:32.894Z,0
2016-12-12T01:03:41.590Z,0.39
2016-12-12T01:03:50.280Z,0
2016-12-12T01:03:59.009Z,0
2016-12-12T01:04:07.743Z,0.39
2016-12-12T01:04:16.505Z,0.39
2016-12-12T01:04:25.190Z,0
2016-12-12T01:04:33.896Z,0
2016-12-12T01:04:42.587Z,0
2016-12-12T01:04:51.342Z,0
2016-12-12T01:05:00.370Z,0
2016-12-12T01:05:09.340Z,0
2016-12-12T01:05:18.030Z,0.39
2016-12-12T01:05:26.775Z,0
2016-12-12T01:05:35.482Z,0
2016-12-12T01:05:44.175Z,0
2016-12-12T01:05:52.882Z,0.78
2016-12-12T01:06:01.626Z,0
2016-12-12T01:06:10.394Z,0
2016-12-12T01:06:19.137Z,0.39
2016-12-12T01:06:27.839Z,0.01
2016-12-12T01:06:36.527Z,0
2016-12-12T01:06:45.254Z,0
2016-12-12T01:06:53.960Z,0
2016-12-12T01:07:02.688Z,0
2016-12-12T01:07:11.384Z,0
2016-12-12T01:07:20.118Z,0
2016-12-12T01:07:28.860Z,0
2016-12-12T01:07:37.545Z,0.39
2016-12-12T01:07:46.278Z,0
2016-12-12T01:07:54.995Z,0
2016-12-12T01:08:03.699Z,0
2016-12-12T01:08:12.385Z,0
2016-12-12T01:08:21.090Z,0.05
2016-12-12T01:08:29.816Z,0
2016-12-12T01:08:38.545Z,0
2016-12-12T01:08:47.301Z,0.39
2016-12-12T01:08:56.012Z,0
2016-12-12T01:09:04.780Z,0
2016-12-12T01:09:13.506Z,0
2016-12-12T01:09:22.228Z,0
2016-12-12T01:09:30.929Z,0
2016-12-12T01:09:39.668Z,0
2016-12-12T01:09:48.369Z,0
2016-12-12T01:09:57.053Z,0
2016-12-12T01:10:05.761Z,0.39
2016-12-12T01:10:14.483Z,0
2016-12-12T01:10:23.188Z,0
2016-12-12T01:10:31.913Z,0
2016-12-12T01:10:40.664Z,0.39
2016-12-12T01:10:49.364Z,0
2016-12-12T01:10:58.084Z,25
2016-12-12T01:11:06.809Z,1.56
2016-12-12T01:11:15.532Z,0
2016-12-12T01:11:24.222Z,0
2016-12-12T01:11:32.915Z,0
2016-12-12T01:11:41.665Z,0
2016-12-12T01:11:50.369Z,0
2016-12-12T01:11:59.079Z,0
2016-12-12T01:12:07.797Z,0
2016-12-12T01:12:16.519Z,0
2016-12-12T01:12:25.230Z,50
2016-12-12T01:12:33.961Z,0
2016-12-12T01:12:42.644Z,0
2016-12-12T01:12:51.376Z,0.05
2016-12-12T01:13:00.071Z,0
2016-12-12T01:13:08.783Z,0.39
2016-12-12T01:13:17.514Z,1.56
2016-12-12T01:13:26.213Z,0.39
2016-12-12T01:13:34.950Z,0
2016-12-12T01:13:43.718Z,0
2016-12-12T01:13:52.464Z,0.39
2016-12-12T01:14:01.186Z,0.39
2016-12-12T01:14:09.922Z,0
2016-12-12T01:14:18.663Z,0
2016-12-12T01:14:27.704Z,0
2016-12-12T01:14:36.450Z,0.39
2016-12-12T01:14:45.163Z,0.39
2016-12-12T01:14:53.859Z,0
2016-12-12T01:15:02.549Z,0
2016-12-12T01:15:11.257Z,0.19
2016-12-12T01:15:19.980Z,0
2016-12-12T01:15:28.692Z,0.39
2016-12-12T01:15:37.396Z,0
2016-12-12T01:15:46.083Z,0.39
2016-12-12T01:15:54.833Z,0
2016-12-12T01:16:03.542Z,0
2016-12-12T01:16:12.254Z,0
2016-12-12T01:16:20.953Z,0
2016-12-12T01:16:29.662Z,0
2016-12-12T01:16:38.385Z,0
2016-12-12T01:16:47.048Z,0
2016-12-12T01:16:55.780Z,0.39
2016-12-12T01:17:04.505Z,0
2016-12-12T01:17:13.254Z,0.05
2016-12-12T01:17:21.997Z,0.19
2016-12-12T01:17:30.721Z,0
2016-12-12T01:17:39.444Z,0
2016-12-12T01:17:48.163Z,0.01
2016-12-12T01:17:56.857Z,0.39
2016-12-12T01:18:05.552Z,0.78
2016-12-12T01:18:14.247Z,0
2016-12-12T01:18:22.961Z,0
2016-12-12T01:18:31.687Z,0
2016-12-12T01:18:40.712Z,0
2016-12-12T01:18:49.426Z,100
2016-12-12T01:18:58.137Z,0
2016-12-12T01:19:06.883Z,6.25
2016-12-12T01:19:15.611Z,0
2016-12-12T01:19:24.340Z,0
2016-12-12T01:19:33.064Z,0.39
2016-12-12T01:19:41.788Z,0
2016-12-12T01:19:50.503Z,0
2016-12-12T01:19:59.523Z,12.5
2016-12-12T01:20:08.217Z,0
2016-12-12T01:20:16.940Z,0
2016-12-12T01:20:25.664Z,0
2016-12-12T01:20:34.383Z,0
2016-12-12T01:20:43.047Z,0
2016-12-12T01:20:51.731Z,0
2016-12-12T01:21:00.422Z,6.25
2016-12-12T01:21:09.123Z,0
2016-12-12T01:21:17.816Z,0.05
2016-12-12T01:21:26.509Z,0
2016-12-12T01:21:35.255Z,0
2016-12-12T01:21:44.002Z,50
2016-12-12T01:21:52.849Z,0
2016-12-12T01:22:01.534Z,0
2016-12-12T01:22:10.254Z,0
2016-12-12T01:22:18.968Z,0
2016-12-12T01:22:27.698Z,0
2016-12-12T01:22:36.383Z,0
2016-12-12T01:22:45.116Z,0
2016-12-12T01:22:53.879Z,0.39
2016-12-12T01:23:02.573Z,0
2016-12-12T01:23:11.289Z,0.19
2016-12-12T01:23:20.031Z,0
2016-12-12T01:23:28.722Z,0
2016-12-12T01:23:37.448Z,0
2016-12-12T01:23:46.156Z,0.19
2016-12-12T01:23:54.873Z,0
2016-12-12T01:24:03.607Z,0
2016-12-12T01:24:12.345Z,0.19
2016-12-12T01:24:21.091Z,0
2016-12-12T01:24:29.799Z,12.5
2016-12-12T01:24:38.502Z,0
2016-12-12T01:24:47.234Z,3.12
2016-12-12T01:24:55.937Z,0
2016-12-12T01:25:04.694Z,0
2016-12-12T01:25:13.379Z,0
2016-12-12T01:25:22.064Z,0
2016-12-12T01:25:30.779Z,6.25
2016-12-12T01:25:39.485Z,0
2016-12-12T01:25:48.217Z,0
2016-12-12T01:25:56.937Z,0
2016-12-12T01:26:05.654Z,0
2016-12-12T01:26:14.348Z,0
2016-12-12T01:26:23.081Z,0.39
2016-12-12T01:26:31.794Z,0
2016-12-12T01:26:40.481Z,0
2016-12-12T01:26:49.181Z,0.39
2016-12-12T01:26:57.911Z,0
2016-12-12T01:27:06.633Z,3.12
2016-12-12T01:27:15.362Z,0
2016-12-12T01:27:24.087Z,0
2016-12-12T01:27:32.773Z,0
2016-12-12T01:27:41.479Z,0
2016-12-12T01:27:50.197Z,0
2016-12-12T01:27:58.863Z,0.01
2016-12-12T01:28:07.569Z,0
2016-12-12T01:28:16.271Z,0
2016-12-12T01:28:24.984Z,0
2016-12-12T01:28:33.691Z,0
2016-12-12T01:28:42.398Z,0
2016-12-12T01:28:51.156Z,0
2016-12-12T01:28:59.873Z,0
2016-12-12T01:29:08.646Z,0.39
2016-12-12T01:29:17.331Z,0.39
2016-12-12T01:29:26.054Z,0
2016-12-12T01:29:34.746Z,0
2016-12-12T01:29:43.487Z,0
2016-12-12T01:29:52.218Z,0.01
2016-12-12T01:30:01.233Z,0
2016-12-12T01:30:10.275Z,0.1
2016-12-12T01:30:18.988Z,0.39
2016-12-12T01:30:27.716Z,0
2016-12-12T01:30:36.696Z,0
2016-12-12T01:30:45.416Z,0
2016-12-12T01:30:54.108Z,0
2016-12-12T01:31:02.810Z,0
2016-12-12T01:31:11.551Z,0
2016-12-12T01:31:20.267Z,0
2016-12-12T01:31:29.061Z,0
2016-12-12T01:31:37.801Z,0
2016-12-12T01:31:46.512Z,0
2016-12-12T01:31:55.264Z,0
2016-12-12T01:32:04.008Z,0
2016-12-12T01:32:12.706Z,0.39
2016-12-12T01:32:21.397Z,0
2016-12-12T01:32:30.119Z,0.39
2016-12-12T01:32:39.152Z,0
2016-12-12T01:32:47.882Z,6.25
2016-12-12T01:32:56.580Z,0
2016-12-12T01:33:05.279Z,0.19
2016-12-12T01:33:13.950Z,0
2016-12-12T01:33:22.676Z,0
2016-12-12T01:33:31.436Z,0
2016-12-12T01:33:40.166Z,100
2016-12-12T01:33:48.924Z,0
2016-12-12T01:33:57.628Z,0.78
2016-12-12T01:34:06.340Z,0
2016-12-12T01:34:15.077Z,0
2016-12-12T01:34:23.775Z,0
2016-12-12T01:34:32.499Z,3.12
2016-12-12T01:34:41.224Z,0
2016-12-12T01:34:50.216Z,0
2016-12-12T01:34:58.911Z,0
2016-12-12T01:35:07.641Z,0
2016-12-12T01:35:16.660Z,0
2016-12-12T01:35:25.355Z,0.19
2016-12-12T01:35:34.078Z,3.12
2016-12-12T01:35:42.775Z,0.1
2016-12-12T01:35:51.464Z,0
2016-12-12T01:36:00.206Z,0
2016-12-12T01:36:08.893Z,0
2016-12-12T01:36:17.606Z,0
2016-12-12T01:36:26.307Z,0
2016-12-12T01:36:35.032Z,0
2016-12-12T01:36:43.716Z,0
2016-12-12T01:36:52.466Z,0
2016-12-12T01:37:01.197Z,0.78
2016-12-12T01:37:09.931Z,0
2016-12-12T01:37:18.642Z,99.99
2016-12-12T01:37:27.396Z,99.99
2016-12-12T01:37:36.097Z,99.99
2016-12-12T01:37:44.818Z,99.99
2016-12-12T01:37:53.528Z,99.99
2016-12-12T01:38:02.253Z,99.99
2016-12-12T01:38:10.949Z,99.99
2016-12-12T01:38:19.638Z,99.99
2016-12-12T01:38:28.326Z,99.99
2016-12-12T01:38:37.059Z,99.99
2016-12-12T01:38:45.773Z,99.99
2016-12-12T01:38:54.520Z,99.99
2016-12-12T01:39:03.230Z,99.99
2016-12-12T01:39:11.982Z,99.99
2016-12-12T01:39:20.748Z,99.99
2016-12-12T01:39:29.455Z,99.99
2016-12-12T01:39:38.158Z,99.99
2016-12-12T01:39:46.832Z,99.99
2016-12-12T01:39:55.597Z,99.99
2016-12-12T01:40:04.304Z,99.99
2016-12-12T01:40:13.023Z,99.99
2016-12-12T01:40:21.738Z,99.99
2016-12-12T01:40:30.458Z,99.99
2016-12-12T01:40:39.180Z,99.99
2016-12-12T01:40:47.901Z,99.99
2016-12-12T01:40:56.627Z,99.99
2016-12-12T01:41:05.340Z,99.99
2016-12-12T01:41:14.061Z,99.99
2016-12-12T01:41:22.761Z,99.99
2016-12-12T01:41:31.489Z,99.99
2016-12-12T01:41:40.169Z,6.25
2016-12-12T01:41:48.895Z,0
2016-12-12T01:41:57.585Z,0.39
2016-12-12T01:42:06.328Z,0
2016-12-12T01:42:15.057Z,0
2016-12-12T01:42:23.759Z,0
2016-12-12T01:42:32.457Z,0
2016-12-12T01:42:41.161Z,0
2016-12-12T01:42:49.851Z,0
2016-12-12T01:42:58.555Z,0
2016-12-12T01:43:07.295Z,0
2016-12-12T01:43:16.004Z,0
2016-12-12T01:43:24.742Z,0
2016-12-12T01:43:33.425Z,0
2016-12-12T01:43:42.113Z,0
2016-12-12T01:43:50.837Z,0
2016-12-12T01:43:59.557Z,0.39
2016-12-12T01:44:08.260Z,0
2016-12-12T01:44:16.950Z,0
2016-12-12T01:44:25.675Z,0
2016-12-12T01:44:34.402Z,0
2016-12-12T01:44:43.130Z,0.39
2016-12-12T01:44:51.874Z,0
2016-12-12T01:45:00.564Z,0
2016-12-12T01:45:09.275Z,0
2016-12-12T01:45:17.975Z,0
2016-12-12T01:45:26.713Z,100
2016-12-12T01:45:35.409Z,0
2016-12-12T01:45:44.111Z,0
2016-12-12T01:45:52.808Z,0
2016-12-12T01:46:01.550Z,0
2016-12-12T01:46:10.266Z,0
2016-12-12T01:46:18.954Z,0
2016-12-12T01:46:27.651Z,0
2016-12-12T01:46:36.362Z,0
2016-12-12T01:46:45.067Z,0
2016-12-12T01:46:53.791Z,1.56
2016-12-12T01:47:02.607Z,6.25
2016-12-12T01:47:11.386Z,0
2016-12-12T01:47:20.074Z,0
2016-12-12T01:47:28.798Z,0
2016-12-12T01:47:37.540Z,0
2016-12-12T01:47:46.265Z,0
2016-12-12T01:47:54.986Z,0
2016-12-12T01:48:03.713Z,0
2016-12-12T01:48:12.425Z,0
2016-12-12T01:48:21.146Z,0
2016-12-12T01:48:29.880Z,0
2016-12-12T01:48:38.648Z,0
2016-12-12T01:48:47.373Z,0
2016-12-12T01:48:56.121Z,0
2016-12-12T01:49:05.117Z,0
2016-12-12T01:49:13.817Z,0
2016-12-12T01:49:22.519Z,0
2016-12-12T01:49:31.256Z,0
2016-12-12T01:49:40.236Z,0
2016-12-12T01:49:48.949Z,0
2016-12-12T01:49:57.696Z,0
2016-12-12T01:50:06.375Z,0
2016-12-12T01:50:15.099Z,0
2016-12-12T01:50:23.768Z,0
2016-12-12T01:50:32.779Z,0
2016-12-12T01:50:41.458Z,0
2016-12-12T01:50:50.126Z,0
2016-12-12T01:50:58.827Z,0
2016-12-12T01:51:07.548Z,0
2016-12-12T01:51:16.251Z,0
2016-12-12T01:51:24.959Z,0.78
2016-12-12T01:51:33.657Z,0.39
2016-12-12T01:51:42.403Z,0.78
2016-12-12T01:51:51.158Z,12.5
2016-12-12T01:51:59.842Z,0
2016-12-12T01:52:08.597Z,0
2016-12-12T01:52:17.308Z,0
2016-12-12T01:52:26.015Z,0
2016-12-12T01:52:34.733Z,0
2016-12-12T01:52:43.438Z,0
2016-12-12T01:52:52.131Z,0
2016-12-12T01:53:00.833Z,0
2016-12-12T01:53:09.585Z,0
2016-12-12T01:53:18.311Z,0
2016-12-12T01:53:27.044Z,0
2016-12-12T01:53:35.748Z,0
2016-12-12T01:53:44.468Z,0
2016-12-12T01:53:53.172Z,0
2016-12-12T01:54:01.927Z,1.56
2016-12-12T01:54:10.671Z,0
2016-12-12T01:54:19.384Z,0
2016-12-12T01:54:28.101Z,25
2016-12-12T01:54:36.803Z,0
2016-12-12T01:54:45.478Z,6.25
2016-12-12T01:54:54.178Z,0
2016-12-12T01:55:02.880Z,0
2016-12-12T01:55:11.614Z,0
2016-12-12T01:55:20.355Z,0
2016-12-12T01:55:29.051Z,0
2016-12-12T01:55:37.782Z,0
2016-12-12T01:55:46.498Z,0
2016-12-12T01:55:55.260Z,0
2016-12-12T01:56:04.005Z,0
2016-12-12T01:56:12.705Z,0
2016-12-12T01:56:21.425Z,0
2016-12-12T01:56:30.158Z,0
2016-12-12T01:56:38.899Z,0
2016-12-12T01:56:47.640Z,0
2016-12-12T01:56:56.376Z,0
2016-12-12T01:57:05.080Z,0
2016-12-12T01:57:13.811Z,0.02
2016-12-12T01:57:22.562Z,0
2016-12-12T01:57:31.279Z,0
2016-12-12T01:57:40.029Z,0
2016-12-12T01:57:48.756Z,3.12
2016-12-12T01:57:57.469Z,0
2016-12-12T01:58:06.214Z,0
2016-12-12T01:58:15.228Z,0.78
2016-12-12T01:58:23.921Z,0
2016-12-12T01:58:32.630Z,0
2016-12-12T01:58:41.344Z,0
2016-12-12T01:58:50.068Z,0
2016-12-12T01:58:58.791Z,100
2016-12-12T01:59:07.538Z,0
2016-12-12T01:59:16.225Z,0
2016-12-12T01:59:24.958Z,0
2016-12-12T01:59:33.675Z,0.39
2016-12-12T01:59:42.390Z,100
2016-12-12T01:59:51.091Z,0
2016-12-12T01:59:59.782Z,0
2016-12-12T02:00:08.805Z,0
2016-12-12T02:00:17.500Z,0
2016-12-12T02:00:26.237Z,0
2016-12-12T02:00:34.930Z,0
2016-12-12T02:00:43.635Z,0
2016-12-12T02:00:52.346Z,0
2016-12-12T02:01:01.035Z,0
2016-12-12T02:01:10.039Z,0
2016-12-12T02:01:18.771Z,0
2016-12-12T02:01:27.473Z,25
2016-12-12T02:01:36.232Z,0
2016-12-12T02:01:45.213Z,0
2016-12-12T02:01:53.919Z,0
2016-12-12T02:02:02.667Z,0
2016-12-12T02:02:11.349Z,0
2016-12-12T02:02:20.014Z,0
2016-12-12T02:02:28.773Z,0.78
2016-12-12T02:02:37.448Z,0
2016-12-12T02:02:46.173Z,0
2016-12-12T02:02:54.942Z,0
2016-12-12T02:03:03.660Z,0.01
2016-12-12T02:03:12.370Z,0
2016-12-12T02:03:21.100Z,0
2016-12-12T02:03:29.843Z,0
2016-12-12T02:03:38.553Z,0
2016-12-12T02:03:47.350Z,0
2016-12-12T02:03:56.114Z,0
2016-12-12T02:04:04.818Z,0
2016-12-12T02:04:13.559Z,0
2016-12-12T02:04:22.271Z,0
2016-12-12T02:04:30.973Z,0
2016-12-12T02:04:39.700Z,0
2016-12-12T02:04:48.408Z,0
2016-12-12T02:04:57.126Z,0
2016-12-12T02:05:05.859Z,0
2016-12-12T02:05:14.533Z,0
2016-12-12T02:05:23.197Z,0
2016-12-12T02:05:31.889Z,0